sensor_id;sensor_type;location;lat;lon;timestamp;temperature;humidity
56172;DHT22;42052;41.634;-0.946;2022-11-20T00:02:12;20.00;46.20
56172;DHT22;42052;41.634;-0.946;2022-11-20T00:04:58;20.00;46.20
56172;DHT22;42052;41.634;-0.946;2022-11-20T00:07:44;20.00;46.20
56172;DHT22;42052;41.634;-0.946;2022-11-20T00:10:30;20.00;46.20
56172;DHT22;42052;41.634;-0.946;2022-11-20T00:13:16;20.00;46.20
56172;DHT22;42052;41.634;-0.946;2022-11-20T00:16:04;20.00;46.30
56172;DHT22;42052;41.634;-0.946;2022-11-20T00:18:51;20.00;46.20
56172;DHT22;42052;41.634;-0.946;2022-11-20T00:21:37;20.00;47.10
56172;DHT22;42052;41.634;-0.946;2022-11-20T00:24:23;20.00;46.20
56172;DHT22;42052;41.634;-0.946;2022-11-20T00:27:09;20.00;46.20
56172;DHT22;42052;41.634;-0.946;2022-11-20T00:29:55;20.00;46.20
56172;DHT22;42052;41.634;-0.946;2022-11-20T00:32:41;20.00;46.40
56172;DHT22;42052;41.634;-0.946;2022-11-20T00:35:28;20.00;46.30
56172;DHT22;42052;41.634;-0.946;2022-11-20T00:38:14;20.00;46.30
56172;DHT22;42052;41.634;-0.946;2022-11-20T00:41:02;20.00;46.30
56172;DHT22;42052;41.634;-0.946;2022-11-20T00:43:51;20.00;46.30
56172;DHT22;42052;41.634;-0.946;2022-11-20T00:46:38;20.00;46.30
56172;DHT22;42052;41.634;-0.946;2022-11-20T00:49:24;20.00;46.30
56172;DHT22;42052;41.634;-0.946;2022-11-20T00:52:10;20.00;46.40
56172;DHT22;42052;41.634;-0.946;2022-11-20T00:54:56;20.00;46.30
56172;DHT22;42052;41.634;-0.946;2022-11-20T00:57:42;20.00;46.30
56172;DHT22;42052;41.634;-0.946;2022-11-20T01:00:28;20.00;46.20
56172;DHT22;42052;41.634;-0.946;2022-11-20T01:03:15;20.00;46.20
56172;DHT22;42052;41.634;-0.946;2022-11-20T01:06:04;20.00;46.90
56172;DHT22;42052;41.634;-0.946;2022-11-20T01:08:53;20.10;46.30
56172;DHT22;42052;41.634;-0.946;2022-11-20T01:11:42;20.00;46.60
56172;DHT22;42052;41.634;-0.946;2022-11-20T01:14:29;20.10;46.10
56172;DHT22;42052;41.634;-0.946;2022-11-20T01:17:15;20.20;46.00
56172;DHT22;42052;41.634;-0.946;2022-11-20T01:20:01;20.20;45.90
56172;DHT22;42052;41.634;-0.946;2022-11-20T01:22:47;20.20;46.00
56172;DHT22;42052;41.634;-0.946;2022-11-20T01:25:34;20.20;46.00
56172;DHT22;42052;41.634;-0.946;2022-11-20T01:28:20;20.10;46.10
56172;DHT22;42052;41.634;-0.946;2022-11-20T01:31:34;20.10;46.10
56172;DHT22;42052;41.634;-0.946;2022-11-20T01:34:20;20.10;46.20
56172;DHT22;42052;41.634;-0.946;2022-11-20T01:37:07;20.10;46.30
56172;DHT22;42052;41.634;-0.946;2022-11-20T01:39:53;20.10;46.30
56172;DHT22;42052;41.634;-0.946;2022-11-20T01:42:47;20.10;46.30
56172;DHT22;42052;41.634;-0.946;2022-11-20T01:46:02;20.00;46.30
56172;DHT22;42052;41.634;-0.946;2022-11-20T01:52:07;20.00;46.40
56172;DHT22;42052;41.634;-0.946;2022-11-20T01:55:07;20.00;47.10
56172;DHT22;42052;41.634;-0.946;2022-11-20T01:57:54;20.00;46.40
56172;DHT22;42052;41.634;-0.946;2022-11-20T02:00:41;20.00;46.40
56172;DHT22;42052;41.634;-0.946;2022-11-20T02:03:27;20.00;46.50
56172;DHT22;42052;41.634;-0.946;2022-11-20T02:06:19;20.00;46.50
56172;DHT22;42052;41.634;-0.946;2022-11-20T02:09:05;20.00;46.50
56172;DHT22;42052;41.634;-0.946;2022-11-20T02:11:52;20.00;46.50
56172;DHT22;42052;41.634;-0.946;2022-11-20T02:14:38;20.00;46.50
56172;DHT22;42052;41.634;-0.946;2022-11-20T02:17:25;20.00;46.50
56172;DHT22;42052;41.634;-0.946;2022-11-20T02:20:12;20.00;46.50
56172;DHT22;42052;41.634;-0.946;2022-11-20T02:23:09;20.00;46.50
56172;DHT22;42052;41.634;-0.946;2022-11-20T02:25:57;20.00;46.50
56172;DHT22;42052;41.634;-0.946;2022-11-20T02:28:44;20.00;46.40
56172;DHT22;42052;41.634;-0.946;2022-11-20T02:31:36;20.00;46.50
56172;DHT22;42052;41.634;-0.946;2022-11-20T02:34:23;19.90;46.40
56172;DHT22;42052;41.634;-0.946;2022-11-20T02:37:09;20.00;46.40
56172;DHT22;42052;41.634;-0.946;2022-11-20T02:39:55;20.00;46.30
56172;DHT22;42052;41.634;-0.946;2022-11-20T02:42:41;19.90;46.30
56172;DHT22;42052;41.634;-0.946;2022-11-20T02:45:27;20.00;46.40
56172;DHT22;42052;41.634;-0.946;2022-11-20T02:48:13;20.00;46.40
56172;DHT22;42052;41.634;-0.946;2022-11-20T02:50:59;20.00;46.40
56172;DHT22;42052;41.634;-0.946;2022-11-20T02:53:45;20.00;46.40
56172;DHT22;42052;41.634;-0.946;2022-11-20T02:56:32;20.00;46.30
56172;DHT22;42052;41.634;-0.946;2022-11-20T02:59:18;20.00;46.80
56172;DHT22;42052;41.634;-0.946;2022-11-20T03:02:04;20.00;46.30
56172;DHT22;42052;41.634;-0.946;2022-11-20T03:04:50;20.00;46.40
56172;DHT22;42052;41.634;-0.946;2022-11-20T03:07:36;19.90;46.40
56172;DHT22;42052;41.634;-0.946;2022-11-20T03:10:22;19.90;46.40
56172;DHT22;42052;41.634;-0.946;2022-11-20T03:13:08;19.90;46.50
56172;DHT22;42052;41.634;-0.946;2022-11-20T03:15:55;19.90;46.40
56172;DHT22;42052;41.634;-0.946;2022-11-20T03:18:41;19.90;46.40
56172;DHT22;42052;41.634;-0.946;2022-11-20T03:21:27;20.00;46.40
56172;DHT22;42052;41.634;-0.946;2022-11-20T03:24:14;20.00;46.40
56172;DHT22;42052;41.634;-0.946;2022-11-20T03:27:00;19.90;46.40
56172;DHT22;42052;41.634;-0.946;2022-11-20T03:29:46;20.00;46.40
56172;DHT22;42052;41.634;-0.946;2022-11-20T03:32:32;19.90;46.40
56172;DHT22;42052;41.634;-0.946;2022-11-20T03:35:19;19.90;46.40
56172;DHT22;42052;41.634;-0.946;2022-11-20T03:38:05;19.90;46.40
56172;DHT22;42052;41.634;-0.946;2022-11-20T03:40:51;19.90;46.40
56172;DHT22;42052;41.634;-0.946;2022-11-20T03:44:06;19.90;46.40
56172;DHT22;42052;41.634;-0.946;2022-11-20T03:46:52;19.90;46.40
56172;DHT22;42052;41.634;-0.946;2022-11-20T03:49:38;19.90;46.40
56172;DHT22;42052;41.634;-0.946;2022-11-20T03:52:24;19.90;46.50
56172;DHT22;42052;41.634;-0.946;2022-11-20T03:55:10;19.90;46.50
56172;DHT22;42052;41.634;-0.946;2022-11-20T03:57:56;19.90;46.80
56172;DHT22;42052;41.634;-0.946;2022-11-20T04:00:42;19.90;46.50
56172;DHT22;42052;41.634;-0.946;2022-11-20T04:03:29;19.90;46.60
56172;DHT22;42052;41.634;-0.946;2022-11-20T04:06:19;19.90;46.50
56172;DHT22;42052;41.634;-0.946;2022-11-20T04:09:06;19.90;46.50
56172;DHT22;42052;41.634;-0.946;2022-11-20T04:11:52;19.90;46.50
56172;DHT22;42052;41.634;-0.946;2022-11-20T04:14:38;19.90;46.50
56172;DHT22;42052;41.634;-0.946;2022-11-20T04:17:24;19.90;47.20
56172;DHT22;42052;41.634;-0.946;2022-11-20T04:20:11;19.80;46.50
56172;DHT22;42052;41.634;-0.946;2022-11-20T04:22:57;19.90;46.50
56172;DHT22;42052;41.634;-0.946;2022-11-20T04:25:43;19.90;46.50
56172;DHT22;42052;41.634;-0.946;2022-11-20T04:28:29;19.80;46.50
56172;DHT22;42052;41.634;-0.946;2022-11-20T04:31:24;19.90;46.50
56172;DHT22;42052;41.634;-0.946;2022-11-20T04:34:11;19.80;46.40
56172;DHT22;42052;41.634;-0.946;2022-11-20T04:36:58;19.80;46.40
56172;DHT22;42052;41.634;-0.946;2022-11-20T04:39:44;19.80;46.40
56172;DHT22;42052;41.634;-0.946;2022-11-20T04:42:30;19.90;46.40
56172;DHT22;42052;41.634;-0.946;2022-11-20T04:45:16;19.80;46.30
56172;DHT22;42052;41.634;-0.946;2022-11-20T04:48:03;19.80;46.40
56172;DHT22;42052;41.634;-0.946;2022-11-20T04:50:49;19.80;46.50
56172;DHT22;42052;41.634;-0.946;2022-11-20T04:53:35;19.80;46.50
56172;DHT22;42052;41.634;-0.946;2022-11-20T04:56:21;19.80;46.50
56172;DHT22;42052;41.634;-0.946;2022-11-20T04:59:07;19.80;46.50
56172;DHT22;42052;41.634;-0.946;2022-11-20T05:01:53;19.80;46.40
56172;DHT22;42052;41.634;-0.946;2022-11-20T05:04:39;19.80;46.40
56172;DHT22;42052;41.634;-0.946;2022-11-20T05:07:26;19.80;46.40
56172;DHT22;42052;41.634;-0.946;2022-11-20T05:10:12;19.80;46.50
56172;DHT22;42052;41.634;-0.946;2022-11-20T05:12:58;19.80;46.50
56172;DHT22;42052;41.634;-0.946;2022-11-20T05:15:44;19.80;46.50
56172;DHT22;42052;41.634;-0.946;2022-11-20T05:18:30;19.80;46.40
56172;DHT22;42052;41.634;-0.946;2022-11-20T05:21:17;19.80;46.40
56172;DHT22;42052;41.634;-0.946;2022-11-20T05:24:03;19.80;46.50
56172;DHT22;42052;41.634;-0.946;2022-11-20T05:26:50;19.80;46.50
56172;DHT22;42052;41.634;-0.946;2022-11-20T05:29:36;19.80;46.40
56172;DHT22;42052;41.634;-0.946;2022-11-20T05:32:22;19.80;46.50
56172;DHT22;42052;41.634;-0.946;2022-11-20T05:35:11;19.80;46.50
56172;DHT22;42052;41.634;-0.946;2022-11-20T05:37:57;19.80;46.50
56172;DHT22;42052;41.634;-0.946;2022-11-20T05:40:43;19.80;46.50
56172;DHT22;42052;41.634;-0.946;2022-11-20T05:43:34;19.80;46.50
56172;DHT22;42052;41.634;-0.946;2022-11-20T05:46:21;19.80;46.50
56172;DHT22;42052;41.634;-0.946;2022-11-20T05:49:07;19.80;46.60
56172;DHT22;42052;41.634;-0.946;2022-11-20T05:51:53;19.80;46.50
56172;DHT22;42052;41.634;-0.946;2022-11-20T05:54:39;19.80;46.50
56172;DHT22;42052;41.634;-0.946;2022-11-20T05:57:25;19.80;46.50
56172;DHT22;42052;41.634;-0.946;2022-11-20T06:00:12;19.80;46.50
56172;DHT22;42052;41.634;-0.946;2022-11-20T06:02:58;19.80;46.50
56172;DHT22;42052;41.634;-0.946;2022-11-20T06:05:44;19.80;46.50
56172;DHT22;42052;41.634;-0.946;2022-11-20T06:08:31;19.70;46.50
56172;DHT22;42052;41.634;-0.946;2022-11-20T06:11:17;19.80;46.50
56172;DHT22;42052;41.634;-0.946;2022-11-20T06:14:04;19.70;46.50
56172;DHT22;42052;41.634;-0.946;2022-11-20T06:16:50;19.80;46.50
56172;DHT22;42052;41.634;-0.946;2022-11-20T06:19:36;19.80;46.50
56172;DHT22;42052;41.634;-0.946;2022-11-20T06:22:22;19.80;46.50
56172;DHT22;42052;41.634;-0.946;2022-11-20T06:25:08;19.70;46.50
56172;DHT22;42052;41.634;-0.946;2022-11-20T06:27:54;19.70;46.40
56172;DHT22;42052;41.634;-0.946;2022-11-20T06:30:45;19.70;46.50
56172;DHT22;42052;41.634;-0.946;2022-11-20T06:33:32;19.70;46.40
56172;DHT22;42052;41.634;-0.946;2022-11-20T06:36:20;19.70;46.60
56172;DHT22;42052;41.634;-0.946;2022-11-20T06:39:07;19.70;46.60
56172;DHT22;42052;41.634;-0.946;2022-11-20T06:41:53;19.80;46.50
56172;DHT22;42052;41.634;-0.946;2022-11-20T06:44:39;19.80;46.50
56172;DHT22;42052;41.634;-0.946;2022-11-20T06:47:25;19.80;46.60
56172;DHT22;42052;41.634;-0.946;2022-11-20T06:50:11;19.70;46.50
56172;DHT22;42052;41.634;-0.946;2022-11-20T06:53:00;19.70;47.30
56172;DHT22;42052;41.634;-0.946;2022-11-20T06:55:48;19.70;46.60
56172;DHT22;42052;41.634;-0.946;2022-11-20T06:58:36;19.70;46.60
56172;DHT22;42052;41.634;-0.946;2022-11-20T07:01:22;19.70;46.60
56172;DHT22;42052;41.634;-0.946;2022-11-20T07:04:08;19.70;46.70
56172;DHT22;42052;41.634;-0.946;2022-11-20T07:06:54;19.70;46.60
56172;DHT22;42052;41.634;-0.946;2022-11-20T07:09:40;19.70;46.60
56172;DHT22;42052;41.634;-0.946;2022-11-20T07:12:27;19.70;46.60
56172;DHT22;42052;41.634;-0.946;2022-11-20T07:15:13;19.70;46.60
56172;DHT22;42052;41.634;-0.946;2022-11-20T07:17:59;19.70;46.60
56172;DHT22;42052;41.634;-0.946;2022-11-20T07:20:46;19.70;46.60
56172;DHT22;42052;41.634;-0.946;2022-11-20T07:23:32;19.70;46.60
56172;DHT22;42052;41.634;-0.946;2022-11-20T07:26:18;19.70;46.60
56172;DHT22;42052;41.634;-0.946;2022-11-20T07:29:05;19.70;46.60
56172;DHT22;42052;41.634;-0.946;2022-11-20T07:31:51;19.70;46.60
56172;DHT22;42052;41.634;-0.946;2022-11-20T07:34:37;19.70;46.60
56172;DHT22;42052;41.634;-0.946;2022-11-20T07:37:23;19.70;46.60
56172;DHT22;42052;41.634;-0.946;2022-11-20T07:40:10;19.70;46.50
56172;DHT22;42052;41.634;-0.946;2022-11-20T07:42:56;19.70;46.60
56172;DHT22;42052;41.634;-0.946;2022-11-20T07:45:42;19.70;46.50
56172;DHT22;42052;41.634;-0.946;2022-11-20T07:48:28;19.70;46.60
56172;DHT22;42052;41.634;-0.946;2022-11-20T07:51:14;19.70;46.70
56172;DHT22;42052;41.634;-0.946;2022-11-20T07:54:00;19.70;46.70
56172;DHT22;42052;41.634;-0.946;2022-11-20T07:56:48;19.70;46.60
56172;DHT22;42052;41.634;-0.946;2022-11-20T07:59:34;19.70;46.60
56172;DHT22;42052;41.634;-0.946;2022-11-20T08:02:20;19.70;46.60
56172;DHT22;42052;41.634;-0.946;2022-11-20T08:05:08;19.70;47.00
56172;DHT22;42052;41.634;-0.946;2022-11-20T08:07:54;19.70;46.60
56172;DHT22;42052;41.634;-0.946;2022-11-20T08:10:40;19.70;46.60
56172;DHT22;42052;41.634;-0.946;2022-11-20T08:13:26;19.70;46.70
56172;DHT22;42052;41.634;-0.946;2022-11-20T08:16:31;19.70;46.70
56172;DHT22;42052;41.634;-0.946;2022-11-20T08:19:18;19.70;46.80
56172;DHT22;42052;41.634;-0.946;2022-11-20T08:22:04;19.70;46.80
56172;DHT22;42052;41.634;-0.946;2022-11-20T08:24:50;19.70;46.80
56172;DHT22;42052;41.634;-0.946;2022-11-20T08:27:36;19.70;46.70
56172;DHT22;42052;41.634;-0.946;2022-11-20T08:30:22;19.70;46.80
56172;DHT22;42052;41.634;-0.946;2022-11-20T08:33:09;19.70;46.70
56172;DHT22;42052;41.634;-0.946;2022-11-20T08:36:02;19.70;46.70
56172;DHT22;42052;41.634;-0.946;2022-11-20T08:38:53;19.60;46.50
56172;DHT22;42052;41.634;-0.946;2022-11-20T08:41:39;19.70;46.60
56172;DHT22;42052;41.634;-0.946;2022-11-20T08:44:26;19.70;46.60
56172;DHT22;42052;41.634;-0.946;2022-11-20T08:47:12;19.70;46.60
56172;DHT22;42052;41.634;-0.946;2022-11-20T08:49:58;19.70;46.70
56172;DHT22;42052;41.634;-0.946;2022-11-20T08:52:44;19.70;46.60
56172;DHT22;42052;41.634;-0.946;2022-11-20T08:55:30;19.70;46.70
56172;DHT22;42052;41.634;-0.946;2022-11-20T08:58:16;19.60;46.70
56172;DHT22;42052;41.634;-0.946;2022-11-20T09:01:03;19.60;46.70
56172;DHT22;42052;41.634;-0.946;2022-11-20T09:03:49;19.70;46.80
56172;DHT22;42052;41.634;-0.946;2022-11-20T09:06:35;19.70;46.90
56172;DHT22;42052;41.634;-0.946;2022-11-20T09:09:21;19.70;46.80
56172;DHT22;42052;41.634;-0.946;2022-11-20T09:12:07;19.70;46.80
56172;DHT22;42052;41.634;-0.946;2022-11-20T09:14:53;19.70;46.80
56172;DHT22;42052;41.634;-0.946;2022-11-20T09:17:39;19.70;47.00
56172;DHT22;42052;41.634;-0.946;2022-11-20T09:20:27;19.70;47.10
56172;DHT22;42052;41.634;-0.946;2022-11-20T09:23:14;19.70;47.20
56172;DHT22;42052;41.634;-0.946;2022-11-20T09:26:05;19.70;47.10
56172;DHT22;42052;41.634;-0.946;2022-11-20T09:28:51;19.70;47.10
56172;DHT22;42052;41.634;-0.946;2022-11-20T09:31:38;19.70;47.10
56172;DHT22;42052;41.634;-0.946;2022-11-20T09:34:24;19.70;47.20
56172;DHT22;42052;41.634;-0.946;2022-11-20T09:37:10;19.60;47.10
56172;DHT22;42052;41.634;-0.946;2022-11-20T09:39:56;19.70;47.10
56172;DHT22;42052;41.634;-0.946;2022-11-20T09:42:51;19.70;47.20
56172;DHT22;42052;41.634;-0.946;2022-11-20T09:55:13;19.60;47.00
56172;DHT22;42052;41.634;-0.946;2022-11-20T09:58:00;19.60;47.00
56172;DHT22;42052;41.634;-0.946;2022-11-20T10:00:47;19.60;47.00
56172;DHT22;42052;41.634;-0.946;2022-11-20T10:03:45;19.60;47.00
56172;DHT22;42052;41.634;-0.946;2022-11-20T10:09:35;19.50;47.00
56172;DHT22;42052;41.634;-0.946;2022-11-20T10:18:40;19.50;47.00
56172;DHT22;42052;41.634;-0.946;2022-11-20T10:24:36;19.50;46.90
56172;DHT22;42052;41.634;-0.946;2022-11-20T10:27:39;19.50;47.00
56172;DHT22;42052;41.634;-0.946;2022-11-20T10:30:28;19.50;46.80
56172;DHT22;42052;41.634;-0.946;2022-11-20T10:33:24;19.60;46.90
56172;DHT22;42052;41.634;-0.946;2022-11-20T10:36:26;19.60;46.90
56172;DHT22;42052;41.634;-0.946;2022-11-20T10:39:33;19.60;46.90
56172;DHT22;42052;41.634;-0.946;2022-11-20T10:43:00;19.60;47.00
56172;DHT22;42052;41.634;-0.946;2022-11-20T10:45:49;19.50;46.90
56172;DHT22;42052;41.634;-0.946;2022-11-20T10:48:38;19.60;47.00
56172;DHT22;42052;41.634;-0.946;2022-11-20T10:51:40;19.60;47.00
56172;DHT22;42052;41.634;-0.946;2022-11-20T10:54:58;19.60;46.90
56172;DHT22;42052;41.634;-0.946;2022-11-20T10:58:04;19.60;46.90
56172;DHT22;42052;41.634;-0.946;2022-11-20T11:01:15;19.60;47.00
56172;DHT22;42052;41.634;-0.946;2022-11-20T11:04:02;19.60;46.90
56172;DHT22;42052;41.634;-0.946;2022-11-20T11:06:48;19.60;46.90
56172;DHT22;42052;41.634;-0.946;2022-11-20T11:09:41;19.60;46.80
56172;DHT22;42052;41.634;-0.946;2022-11-20T11:12:28;19.70;47.00
56172;DHT22;42052;41.634;-0.946;2022-11-20T11:15:57;19.60;46.90
56172;DHT22;42052;41.634;-0.946;2022-11-20T11:18:36;19.70;46.90
56172;DHT22;42052;41.634;-0.946;2022-11-20T11:21:24;19.70;46.90
56172;DHT22;42052;41.634;-0.946;2022-11-20T11:24:24;19.70;46.90
56172;DHT22;42052;41.634;-0.946;2022-11-20T11:27:12;19.60;46.80
56172;DHT22;42052;41.634;-0.946;2022-11-20T11:30:14;19.70;47.00
56172;DHT22;42052;41.634;-0.946;2022-11-20T11:33:08;19.70;47.00
56172;DHT22;42052;41.634;-0.946;2022-11-20T11:36:00;19.60;47.00
56172;DHT22;42052;41.634;-0.946;2022-11-20T11:38:51;19.70;47.10
56172;DHT22;42052;41.634;-0.946;2022-11-20T11:41:37;19.60;47.00
56172;DHT22;42052;41.634;-0.946;2022-11-20T11:44:31;19.70;47.00
56172;DHT22;42052;41.634;-0.946;2022-11-20T11:50:26;19.70;47.10
56172;DHT22;42052;41.634;-0.946;2022-11-20T11:53:17;19.60;47.10
56172;DHT22;42052;41.634;-0.946;2022-11-20T11:56:09;19.70;47.20
56172;DHT22;42052;41.634;-0.946;2022-11-20T11:58:56;19.60;47.00
56172;DHT22;42052;41.634;-0.946;2022-11-20T12:01:57;19.70;47.20
56172;DHT22;42052;41.634;-0.946;2022-11-20T12:04:58;19.70;47.10
56172;DHT22;42052;41.634;-0.946;2022-11-20T12:16:35;19.70;47.20
56172;DHT22;42052;41.634;-0.946;2022-11-20T12:19:22;19.70;47.20
56172;DHT22;42052;41.634;-0.946;2022-11-20T12:22:19;19.70;47.20
56172;DHT22;42052;41.634;-0.946;2022-11-20T12:25:24;19.70;47.20
56172;DHT22;42052;41.634;-0.946;2022-11-20T12:42:08;19.70;47.20
56172;DHT22;42052;41.634;-0.946;2022-11-20T12:57:34;19.70;47.10
56172;DHT22;42052;41.634;-0.946;2022-11-20T13:00:23;19.70;47.10
56172;DHT22;42052;41.634;-0.946;2022-11-20T13:08:56;19.70;47.10
56172;DHT22;42052;41.634;-0.946;2022-11-20T13:16:04;19.70;47.10
56172;DHT22;42052;41.634;-0.946;2022-11-20T13:18:17;19.70;47.10
56172;DHT22;42052;41.634;-0.946;2022-11-20T13:21:17;19.80;47.10
56172;DHT22;42052;41.634;-0.946;2022-11-20T13:30:14;19.80;47.00
56172;DHT22;42052;41.634;-0.946;2022-11-20T13:36:01;19.70;47.00
56172;DHT22;42052;41.634;-0.946;2022-11-20T13:38:49;19.70;47.00
56172;DHT22;42052;41.634;-0.946;2022-11-20T13:41:37;19.70;47.00
56172;DHT22;42052;41.634;-0.946;2022-11-20T13:47:26;19.70;47.00
56172;DHT22;42052;41.634;-0.946;2022-11-20T13:50:14;19.80;47.10
56172;DHT22;42052;41.634;-0.946;2022-11-20T13:56:37;19.80;47.00
56172;DHT22;42052;41.634;-0.946;2022-11-20T14:05:55;19.80;47.10
56172;DHT22;42052;41.634;-0.946;2022-11-20T14:08:49;19.80;47.00
56172;DHT22;42052;41.634;-0.946;2022-11-20T14:11:35;19.80;46.90
56172;DHT22;42052;41.634;-0.946;2022-11-20T14:14:26;19.80;47.00
56172;DHT22;42052;41.634;-0.946;2022-11-20T14:20:13;19.80;47.10
56172;DHT22;42052;41.634;-0.946;2022-11-20T14:23:00;19.80;47.10
56172;DHT22;42052;41.634;-0.946;2022-11-20T14:25:46;19.80;47.10
56172;DHT22;42052;41.634;-0.946;2022-11-20T14:28:32;19.80;47.10
56172;DHT22;42052;41.634;-0.946;2022-11-20T14:31:24;19.80;47.10
56172;DHT22;42052;41.634;-0.946;2022-11-20T14:34:25;19.80;47.10
56172;DHT22;42052;41.634;-0.946;2022-11-20T14:37:17;19.80;47.10
56172;DHT22;42052;41.634;-0.946;2022-11-20T14:40:24;19.80;47.20
56172;DHT22;42052;41.634;-0.946;2022-11-20T14:43:19;19.80;47.10
56172;DHT22;42052;41.634;-0.946;2022-11-20T14:46:10;19.80;47.10
56172;DHT22;42052;41.634;-0.946;2022-11-20T14:49:00;19.80;47.10
56172;DHT22;42052;41.634;-0.946;2022-11-20T14:51:46;19.80;47.10
56172;DHT22;42052;41.634;-0.946;2022-11-20T14:54:43;19.80;47.20
56172;DHT22;42052;41.634;-0.946;2022-11-20T14:57:34;19.80;47.20
56172;DHT22;42052;41.634;-0.946;2022-11-20T15:00:21;19.80;47.20
56172;DHT22;42052;41.634;-0.946;2022-11-20T15:03:15;19.80;47.10
56172;DHT22;42052;41.634;-0.946;2022-11-20T15:06:01;19.80;47.10
56172;DHT22;42052;41.634;-0.946;2022-11-20T15:08:52;19.80;47.20
56172;DHT22;42052;41.634;-0.946;2022-11-20T15:11:38;19.80;47.20
56172;DHT22;42052;41.634;-0.946;2022-11-20T15:14:25;19.80;47.20
56172;DHT22;42052;41.634;-0.946;2022-11-20T15:17:13;19.70;47.20
56172;DHT22;42052;41.634;-0.946;2022-11-20T15:20:00;19.80;47.20
56172;DHT22;42052;41.634;-0.946;2022-11-20T15:22:47;19.80;47.20
56172;DHT22;42052;41.634;-0.946;2022-11-20T15:25:33;19.80;47.20
56172;DHT22;42052;41.634;-0.946;2022-11-20T15:28:35;19.80;47.20
56172;DHT22;42052;41.634;-0.946;2022-11-20T15:31:23;19.80;47.20
56172;DHT22;42052;41.634;-0.946;2022-11-20T15:34:14;19.80;47.30
56172;DHT22;42052;41.634;-0.946;2022-11-20T15:37:00;19.80;47.30
56172;DHT22;42052;41.634;-0.946;2022-11-20T15:39:46;19.80;47.30
56172;DHT22;42052;41.634;-0.946;2022-11-20T15:42:33;19.80;47.30
56172;DHT22;42052;41.634;-0.946;2022-11-20T15:45:19;19.80;47.30
56172;DHT22;42052;41.634;-0.946;2022-11-20T15:48:12;19.80;47.30
56172;DHT22;42052;41.634;-0.946;2022-11-20T15:53:48;19.80;47.30
56172;DHT22;42052;41.634;-0.946;2022-11-20T15:56:35;19.80;47.40
56172;DHT22;42052;41.634;-0.946;2022-11-20T15:59:21;19.80;47.40
56172;DHT22;42052;41.634;-0.946;2022-11-20T16:02:14;19.80;47.50
56172;DHT22;42052;41.634;-0.946;2022-11-20T16:05:01;19.80;47.50
56172;DHT22;42052;41.634;-0.946;2022-11-20T16:07:47;19.80;47.50
56172;DHT22;42052;41.634;-0.946;2022-11-20T16:10:33;19.80;47.50
56172;DHT22;42052;41.634;-0.946;2022-11-20T16:13:19;19.80;47.50
56172;DHT22;42052;41.634;-0.946;2022-11-20T16:16:36;19.80;47.50
56172;DHT22;42052;41.634;-0.946;2022-11-20T16:19:23;19.80;47.60
56172;DHT22;42052;41.634;-0.946;2022-11-20T16:22:11;19.80;47.60
56172;DHT22;42052;41.634;-0.946;2022-11-20T16:24:57;19.80;47.60
56172;DHT22;42052;41.634;-0.946;2022-11-20T16:27:43;19.80;47.60
56172;DHT22;42052;41.634;-0.946;2022-11-20T16:30:31;19.80;47.60
56172;DHT22;42052;41.634;-0.946;2022-11-20T16:33:18;19.80;47.70
56172;DHT22;42052;41.634;-0.946;2022-11-20T16:36:12;19.80;47.60
56172;DHT22;42052;41.634;-0.946;2022-11-20T16:39:00;19.80;47.70
56172;DHT22;42052;41.634;-0.946;2022-11-20T16:41:46;19.80;47.70
56172;DHT22;42052;41.634;-0.946;2022-11-20T16:44:32;19.80;47.70
56172;DHT22;42052;41.634;-0.946;2022-11-20T16:47:19;19.80;47.70
56172;DHT22;42052;41.634;-0.946;2022-11-20T16:50:06;19.80;47.80
56172;DHT22;42052;41.634;-0.946;2022-11-20T16:52:52;19.80;47.70
56172;DHT22;42052;41.634;-0.946;2022-11-20T16:55:38;19.80;47.70
56172;DHT22;42052;41.634;-0.946;2022-11-20T16:58:24;19.80;47.70
56172;DHT22;42052;41.634;-0.946;2022-11-20T17:01:12;19.80;47.80
56172;DHT22;42052;41.634;-0.946;2022-11-20T17:04:04;19.80;47.80
56172;DHT22;42052;41.634;-0.946;2022-11-20T17:06:50;19.80;47.80
56172;DHT22;42052;41.634;-0.946;2022-11-20T17:09:37;19.80;47.80
56172;DHT22;42052;41.634;-0.946;2022-11-20T17:12:23;19.80;47.90
56172;DHT22;42052;41.634;-0.946;2022-11-20T17:15:10;19.80;47.80
56172;DHT22;42052;41.634;-0.946;2022-11-20T17:17:56;19.80;47.90
56172;DHT22;42052;41.634;-0.946;2022-11-20T17:20:42;19.80;47.90
56172;DHT22;42052;41.634;-0.946;2022-11-20T17:23:40;19.80;48.00
56172;DHT22;42052;41.634;-0.946;2022-11-20T17:26:27;19.80;48.00
56172;DHT22;42052;41.634;-0.946;2022-11-20T17:29:15;19.80;48.00
56172;DHT22;42052;41.634;-0.946;2022-11-20T17:32:02;19.80;47.90
56172;DHT22;42052;41.634;-0.946;2022-11-20T17:34:48;19.80;48.00
56172;DHT22;42052;41.634;-0.946;2022-11-20T17:37:34;19.80;48.00
56172;DHT22;42052;41.634;-0.946;2022-11-20T17:40:20;19.80;48.00
56172;DHT22;42052;41.634;-0.946;2022-11-20T17:43:06;19.80;48.00
56172;DHT22;42052;41.634;-0.946;2022-11-20T17:45:52;19.80;48.00
56172;DHT22;42052;41.634;-0.946;2022-11-20T17:48:39;19.80;48.10
56172;DHT22;42052;41.634;-0.946;2022-11-20T17:51:30;19.80;48.10
56172;DHT22;42052;41.634;-0.946;2022-11-20T17:54:16;19.80;48.00
56172;DHT22;42052;41.634;-0.946;2022-11-20T17:57:02;19.80;48.10
56172;DHT22;42052;41.634;-0.946;2022-11-20T18:00:08;19.80;48.10
56172;DHT22;42052;41.634;-0.946;2022-11-20T18:02:55;19.80;48.10
56172;DHT22;42052;41.634;-0.946;2022-11-20T18:05:42;19.80;48.10
56172;DHT22;42052;41.634;-0.946;2022-11-20T18:08:28;19.80;48.10
56172;DHT22;42052;41.634;-0.946;2022-11-20T18:11:20;19.80;48.20
56172;DHT22;42052;41.634;-0.946;2022-11-20T18:14:11;19.80;48.20
56172;DHT22;42052;41.634;-0.946;2022-11-20T18:17:15;19.80;48.10
56172;DHT22;42052;41.634;-0.946;2022-11-20T18:20:02;19.80;48.20
56172;DHT22;42052;41.634;-0.946;2022-11-20T18:22:48;19.80;48.20
56172;DHT22;42052;41.634;-0.946;2022-11-20T18:25:34;19.80;48.20
56172;DHT22;42052;41.634;-0.946;2022-11-20T18:28:20;19.80;48.20
56172;DHT22;42052;41.634;-0.946;2022-11-20T18:31:09;19.80;48.20
56172;DHT22;42052;41.634;-0.946;2022-11-20T18:33:55;19.90;48.20
56172;DHT22;42052;41.634;-0.946;2022-11-20T18:36:41;19.90;48.30
56172;DHT22;42052;41.634;-0.946;2022-11-20T18:39:28;19.90;48.30
56172;DHT22;42052;41.634;-0.946;2022-11-20T18:42:15;19.80;48.30
56172;DHT22;42052;41.634;-0.946;2022-11-20T18:45:19;19.80;48.30
56172;DHT22;42052;41.634;-0.946;2022-11-20T18:48:05;19.90;48.40
56172;DHT22;42052;41.634;-0.946;2022-11-20T18:50:52;19.80;48.40
56172;DHT22;42052;41.634;-0.946;2022-11-20T18:53:38;19.80;48.40
56172;DHT22;42052;41.634;-0.946;2022-11-20T18:56:24;19.80;48.30
56172;DHT22;42052;41.634;-0.946;2022-11-20T18:59:10;19.80;48.30
56172;DHT22;42052;41.634;-0.946;2022-11-20T19:01:57;19.80;48.40
56172;DHT22;42052;41.634;-0.946;2022-11-20T19:04:43;19.80;48.40
56172;DHT22;42052;41.634;-0.946;2022-11-20T19:07:29;19.80;48.50
56172;DHT22;42052;41.634;-0.946;2022-11-20T19:10:19;19.80;48.50